createdAt,value
2023-01-07T00:01:39.234Z,9.43
2023-01-07T00:04:09.273Z,9.51
2023-01-07T00:06:40.400Z,9.50
2023-01-07T00:09:12.828Z,9.49
2023-01-07T00:11:42.062Z,9.53
2023-01-07T00:14:11.773Z,9.48
2023-01-07T00:16:40.176Z,9.48
2023-01-07T00:19:09.227Z,9.51
2023-01-07T00:21:38.351Z,9.52
2023-01-07T00:24:08.127Z,9.50
2023-01-07T00:26:37.938Z,9.49
2023-01-07T00:29:06.844Z,9.51
2023-01-07T00:31:38.011Z,9.51
2023-01-07T00:34:09.313Z,9.45
2023-01-07T00:36:41.725Z,9.56
2023-01-07T00:39:13.063Z,9.48
2023-01-07T00:41:40.863Z,9.42
2023-01-07T00:44:09.157Z,9.48
2023-01-07T00:46:37.045Z,9.52
2023-01-07T00:49:17.913Z,9.50
2023-01-07T00:51:47.066Z,9.45
2023-01-07T00:54:14.876Z,9.54
2023-01-07T00:56:42.763Z,9.47
2023-01-07T00:59:10.581Z,9.50
2023-01-07T01:01:38.535Z,9.53
2023-01-07T01:04:06.327Z,9.47
2023-01-07T01:06:34.056Z,9.49
2023-01-07T01:09:03.696Z,9.39
2023-01-07T01:11:31.460Z,9.33
2023-01-07T01:13:59.122Z,9.39
2023-01-07T01:16:26.902Z,9.34
2023-01-07T01:18:54.736Z,9.26
2023-01-07T01:21:22.480Z,9.26
2023-01-07T01:23:50.186Z,9.28
2023-01-07T01:26:19.575Z,9.29
2023-01-07T01:28:47.428Z,9.26
2023-01-07T01:31:20.232Z,9.31
2023-01-07T01:33:55.018Z,9.36
2023-01-07T01:36:23.071Z,9.33
2023-01-07T01:38:52.430Z,9.28
2023-01-07T01:41:21.540Z,9.28
2023-01-07T01:43:52.553Z,9.27
2023-01-07T01:46:23.005Z,9.20
2023-01-07T01:48:54.453Z,9.17
2023-01-07T01:51:26.620Z,9.16
2023-01-07T01:53:56.532Z,9.27
2023-01-07T01:56:30.663Z,9.23
2023-01-07T01:59:02.055Z,9.22
2023-01-07T02:01:32.461Z,9.17
2023-01-07T02:04:02.364Z,9.16
2023-01-07T02:06:35.315Z,9.14
2023-01-07T02:09:03.599Z,9.09
2023-01-07T02:11:42.265Z,9.13
2023-01-07T02:14:32.853Z,9.06
2023-01-07T02:17:09.703Z,9.04
2023-01-07T02:20:16.056Z,9.11
2023-01-07T02:23:22.372Z,9.10
2023-01-07T02:26:38.253Z,9.20
2023-01-07T02:29:49.336Z,9.16
2023-01-07T02:32:32.104Z,9.21
2023-01-07T02:35:10.722Z,9.31
2023-01-07T02:37:46.859Z,9.26
2023-01-07T02:40:24.379Z,9.30
2023-01-07T02:43:01.806Z,9.28
2023-01-07T02:45:33.234Z,9.21
2023-01-07T02:48:06.345Z,9.21
2023-01-07T02:50:35.413Z,9.10
2023-01-07T02:53:03.147Z,9.14
2023-01-07T02:55:43.231Z,9.13
2023-01-07T02:58:44.673Z,9.09
2023-01-07T03:01:45.382Z,9.13
2023-01-07T03:04:28.876Z,9.13
2023-01-07T03:07:10.094Z,9.09
2023-01-07T03:09:45.363Z,9.18
2023-01-07T03:12:20.916Z,9.18
2023-01-07T03:14:52.687Z,9.22
2023-01-07T03:17:25.473Z,9.19
2023-01-07T03:19:58.799Z,9.19
2023-01-07T03:22:29.678Z,9.14
2023-01-07T03:24:58.887Z,9.13
2023-01-07T03:27:28.609Z,9.09
2023-01-07T03:29:56.980Z,9.16
2023-01-07T03:32:29.320Z,9.08
2023-01-07T03:34:59.039Z,9.11
2023-01-07T03:37:29.087Z,9.08
2023-01-07T03:39:59.851Z,9.09
2023-01-07T03:42:40.160Z,9.09
2023-01-07T03:45:14.244Z,9.10
2023-01-07T03:47:45.064Z,9.02
2023-01-07T03:50:15.089Z,8.95
2023-01-07T03:52:45.233Z,8.97
2023-01-07T03:55:13.185Z,8.99
2023-01-07T03:57:41.477Z,8.97
2023-01-07T04:00:11.944Z,8.95
2023-01-07T04:02:45.516Z,8.96
2023-01-07T04:05:34.983Z,9.00
2023-01-07T04:08:03.331Z,9.03
2023-01-07T04:10:34.982Z,9.01
2023-01-07T04:13:02.795Z,9.02
2023-01-07T04:15:30.781Z,9.00
2023-01-07T04:17:58.740Z,8.92
2023-01-07T04:20:26.938Z,8.89
2023-01-07T04:22:56.475Z,8.85
2023-01-07T04:25:24.217Z,8.84
2023-01-07T04:27:51.939Z,8.85
2023-01-07T04:30:19.695Z,8.85
2023-01-07T04:32:47.446Z,8.83
2023-01-07T04:35:15.437Z,8.81
2023-01-07T04:37:43.175Z,8.83
2023-01-07T04:40:13.489Z,8.82
2023-01-07T04:42:41.189Z,8.89
2023-01-07T04:45:11.189Z,8.97
2023-01-07T04:47:38.983Z,9.05
2023-01-07T04:50:08.586Z,9.01
2023-01-07T04:52:37.653Z,9.04
2023-01-07T04:55:07.285Z,9.11
2023-01-07T04:57:36.472Z,9.21
2023-01-07T05:00:05.441Z,9.19
2023-01-07T05:02:34.329Z,9.28
2023-01-07T05:05:02.843Z,9.16
2023-01-07T05:07:31.505Z,9.14
2023-01-07T05:10:00.011Z,9.22
2023-01-07T05:12:28.732Z,9.21
2023-01-07T05:14:57.784Z,9.19
2023-01-07T05:17:25.657Z,9.17
2023-01-07T05:19:54.198Z,9.19
2023-01-07T05:22:21.880Z,9.37
2023-01-07T05:24:49.603Z,9.32
2023-01-07T05:27:18.706Z,9.38
2023-01-07T05:29:46.410Z,9.23
2023-01-07T05:32:15.704Z,9.28
2023-01-07T05:34:43.570Z,9.36
2023-01-07T05:37:11.312Z,9.25
2023-01-07T05:39:42.093Z,9.39
2023-01-07T05:42:10.236Z,9.45
2023-01-07T05:44:38.160Z,9.27
2023-01-07T05:47:05.947Z,9.29
2023-01-07T05:49:35.103Z,9.19
2023-01-07T05:52:02.883Z,9.22
2023-01-07T05:54:30.580Z,9.14
2023-01-07T05:56:58.317Z,9.30
2023-01-07T05:59:26.002Z,9.16
2023-01-07T06:01:53.694Z,9.12
2023-01-07T06:04:21.669Z,9.14
2023-01-07T06:06:50.829Z,9.12
2023-01-07T06:09:18.513Z,9.31
2023-01-07T06:11:46.418Z,9.18
2023-01-07T06:14:14.134Z,9.19
2023-01-07T06:16:41.952Z,9.20
2023-01-07T06:19:09.582Z,9.13
2023-01-07T06:21:37.299Z,9.19
2023-01-07T06:24:07.975Z,9.25
2023-01-07T06:26:35.847Z,9.48
2023-01-07T06:29:03.728Z,9.33
2023-01-07T06:31:31.475Z,9.32
2023-01-07T06:33:59.267Z,9.20
2023-01-07T06:36:26.942Z,9.21
2023-01-07T06:38:54.686Z,9.22
2023-01-07T06:41:23.780Z,9.17
2023-01-07T06:43:51.408Z,9.07
2023-01-07T06:46:20.086Z,9.13
2023-01-07T06:48:47.940Z,9.03
2023-01-07T06:51:15.626Z,9.15
2023-01-07T06:53:43.496Z,9.19
2023-01-07T06:56:11.242Z,9.12
2023-01-07T06:58:40.304Z,9.13
2023-01-07T07:01:09.182Z,9.05
2023-01-07T07:03:36.896Z,9.12
2023-01-07T07:06:05.650Z,9.08
2023-01-07T07:08:33.455Z,9.08
2023-01-07T07:11:01.441Z,9.05
2023-01-07T07:13:30.025Z,9.01
2023-01-07T07:15:59.875Z,9.03
2023-01-07T07:18:28.522Z,9.03
2023-01-07T07:20:56.646Z,9.01
2023-01-07T07:23:24.437Z,9.04
2023-01-07T07:25:52.259Z,9.03
2023-01-07T07:28:20.035Z,8.99
2023-01-07T07:30:48.471Z,9.01
2023-01-07T07:33:19.536Z,9.06
2023-01-07T07:35:48.202Z,9.14
2023-01-07T07:38:17.732Z,9.10
2023-01-07T07:40:45.817Z,9.10
2023-01-07T07:43:13.620Z,9.05
2023-01-07T07:45:41.657Z,9.08
2023-01-07T07:48:10.324Z,9.09
2023-01-07T07:50:39.636Z,8.99
2023-01-07T07:53:10.249Z,9.15
2023-01-07T07:55:38.981Z,9.12
2023-01-07T07:58:07.546Z,9.07
2023-01-07T08:00:35.379Z,9.14
2023-01-07T08:03:03.282Z,9.11
2023-01-07T08:05:31.463Z,9.17
2023-01-07T08:08:00.585Z,9.38
2023-01-07T08:10:29.098Z,9.15
2023-01-07T08:12:57.082Z,9.20
2023-01-07T08:15:24.803Z,9.20
2023-01-07T08:17:59.233Z,9.19
2023-01-07T08:20:27.031Z,9.22
2023-01-07T08:22:55.084Z,9.15
2023-01-07T08:25:24.109Z,9.13
2023-01-07T08:27:51.868Z,9.16
2023-01-07T08:30:20.421Z,9.11
2023-01-07T08:32:48.242Z,9.15
2023-01-07T08:35:17.008Z,9.19
2023-01-07T08:37:45.371Z,9.23
2023-01-07T08:40:14.365Z,9.17
2023-01-07T08:42:43.542Z,9.19
2023-01-07T08:45:12.632Z,9.21
2023-01-07T08:47:40.344Z,9.38
2023-01-07T08:50:08.810Z,9.39
2023-01-07T08:52:36.622Z,9.61
2023-01-07T08:55:04.534Z,9.58
2023-01-07T08:57:32.339Z,9.62
2023-01-07T09:00:01.662Z,9.45
2023-01-07T09:02:29.837Z,9.51
2023-01-07T09:04:57.765Z,9.40
2023-01-07T09:07:25.547Z,9.55
2023-01-07T09:09:53.284Z,9.71
2023-01-07T09:12:20.944Z,9.60
2023-01-07T09:14:48.742Z,9.49
2023-01-07T09:17:18.048Z,9.54
2023-01-07T09:19:45.797Z,9.57
2023-01-07T09:22:13.490Z,9.71
2023-01-07T09:24:41.233Z,9.66
2023-01-07T09:27:08.951Z,9.71
2023-01-07T09:29:36.820Z,9.83
2023-01-07T09:32:04.597Z,10.06
2023-01-07T09:34:33.629Z,9.97
2023-01-07T09:37:01.429Z,9.99
2023-01-07T09:39:29.248Z,10.03
2023-01-07T09:42:05.311Z,9.99
2023-01-07T09:44:50.041Z,10.30
2023-01-07T09:47:22.083Z,10.23
2023-01-07T09:49:55.846Z,10.42
2023-01-07T09:52:27.812Z,10.33
2023-01-07T09:55:02.965Z,10.45
2023-01-07T09:57:30.698Z,10.31
2023-01-07T09:59:58.504Z,10.35
2023-01-07T10:02:38.755Z,10.36
2023-01-07T10:05:22.311Z,10.30
2023-01-07T10:08:29.256Z,10.61
2023-01-07T10:10:52.492Z,10.46
2023-01-07T10:13:40.063Z,10.56
2023-01-07T10:16:16.095Z,10.66
2023-01-07T10:18:51.538Z,10.50
2023-01-07T10:21:25.108Z,10.78
2023-01-07T10:23:57.484Z,10.70
2023-01-07T10:26:32.549Z,10.74
2023-01-07T10:29:05.961Z,10.76
2023-01-07T10:31:34.095Z,10.69
2023-01-07T10:34:02.108Z,10.70
2023-01-07T10:36:34.897Z,10.66
2023-01-07T10:39:16.089Z,10.84
2023-01-07T10:41:56.895Z,10.44
2023-01-07T10:45:04.079Z,10.40
2023-01-07T10:47:48.013Z,10.53
2023-01-07T10:50:34.633Z,10.53
2023-01-07T10:53:17.380Z,10.69
2023-01-07T10:55:54.468Z,10.66
2023-01-07T10:58:22.735Z,10.71
2023-01-07T11:00:50.698Z,10.70
2023-01-07T11:03:22.088Z,10.78
2023-01-07T11:05:55.382Z,10.94
2023-01-07T11:08:30.800Z,10.67
2023-01-07T11:10:59.573Z,10.66
2023-01-07T11:13:30.164Z,10.58
2023-01-07T11:16:01.728Z,10.54
2023-01-07T11:18:35.109Z,10.62
2023-01-07T11:21:03.464Z,10.62
2023-01-07T11:23:35.217Z,10.90
2023-01-07T11:26:16.484Z,10.77
2023-01-07T11:28:50.384Z,10.75
2023-01-07T11:31:19.255Z,10.56
2023-01-07T11:34:02.719Z,10.66
2023-01-07T11:36:41.770Z,10.80
2023-01-07T11:39:21.513Z,10.72
2023-01-07T11:41:54.482Z,10.68
2023-01-07T11:44:22.446Z,10.79
2023-01-07T11:46:50.831Z,10.86
2023-01-07T11:49:25.510Z,10.66
2023-01-07T11:51:53.901Z,10.75
2023-01-07T11:54:25.917Z,10.63
2023-01-07T11:56:55.411Z,10.77
2023-01-07T11:59:30.404Z,10.57
2023-01-07T12:02:00.341Z,10.68
2023-01-07T12:04:30.484Z,10.60
2023-01-07T12:07:02.269Z,10.56
2023-01-07T12:09:38.269Z,10.57
2023-01-07T12:12:37.021Z,10.69
2023-01-07T12:15:07.865Z,10.54
2023-01-07T12:17:36.909Z,10.82
2023-01-07T12:20:29.190Z,10.84
2023-01-07T12:23:08.852Z,10.81
2023-01-07T12:25:50.670Z,10.88
2023-01-07T12:28:21.822Z,10.84
2023-01-07T12:31:05.689Z,10.64
2023-01-07T12:33:46.790Z,10.56
2023-01-07T12:36:19.131Z,10.64
2023-01-07T12:38:49.559Z,10.70
2023-01-07T12:41:24.169Z,10.76
2023-01-07T12:44:00.203Z,10.84
2023-01-07T12:46:31.849Z,10.78
2023-01-07T12:49:06.700Z,10.74
2023-01-07T12:51:40.715Z,10.68
2023-01-07T12:54:16.878Z,10.82
2023-01-07T12:56:52.526Z,10.88
2023-01-07T12:59:46.316Z,11.03
2023-01-07T13:02:21.000Z,10.90
2023-01-07T13:04:54.215Z,11.04
2023-01-07T13:07:28.709Z,10.92
2023-01-07T13:10:00.711Z,10.90
2023-01-07T13:12:46.033Z,10.93
2023-01-07T13:15:21.609Z,11.02
2023-01-07T13:17:50.935Z,10.86
2023-01-07T13:20:28.929Z,10.87
2023-01-07T13:22:57.712Z,10.86
2023-01-07T13:25:38.657Z,11.09
2023-01-07T13:28:35.940Z,10.80
2023-01-07T13:31:29.097Z,10.77
2023-01-07T13:34:05.258Z,11.00
2023-01-07T13:36:40.933Z,11.20
2023-01-07T13:39:41.401Z,10.91
2023-01-07T13:42:22.368Z,10.82
2023-01-07T13:45:06.261Z,10.87
2023-01-07T13:47:45.425Z,10.86
2023-01-07T13:50:24.663Z,10.88
2023-01-07T13:53:00.994Z,10.87
2023-01-07T13:55:38.291Z,11.00
2023-01-07T13:58:43.809Z,11.04
2023-01-07T14:01:15.077Z,11.00
2023-01-07T14:03:49.600Z,10.93
2023-01-07T14:06:48.967Z,11.10
2023-01-07T14:09:23.387Z,11.08
2023-01-07T14:12:34.144Z,10.97
2023-01-07T14:15:32.115Z,10.82
2023-01-07T14:18:25.488Z,10.85
2023-01-07T14:21:02.239Z,11.02
2023-01-07T14:23:39.320Z,10.88
2023-01-07T14:26:18.230Z,11.04
2023-01-07T14:29:22.440Z,10.93
2023-01-07T14:31:51.265Z,11.06
2023-01-07T14:34:24.922Z,10.87
2023-01-07T14:37:15.336Z,11.16
2023-01-07T14:39:45.145Z,10.85
2023-01-07T14:42:43.842Z,10.64
2023-01-07T14:45:55.152Z,10.51
2023-01-07T14:48:32.368Z,10.58
2023-01-07T14:51:27.313Z,10.54
2023-01-07T14:54:14.699Z,10.51
2023-01-07T14:56:56.126Z,10.46
2023-01-07T14:59:56.665Z,10.45
2023-01-07T15:02:45.768Z,10.37
2023-01-07T15:05:43.919Z,10.33
2023-01-07T15:08:35.836Z,10.40
2023-01-07T15:11:25.604Z,10.41
2023-01-07T15:14:15.934Z,10.21
2023-01-07T15:16:44.820Z,10.22
2023-01-07T15:19:12.993Z,10.10
2023-01-07T15:21:54.230Z,10.28
2023-01-07T15:24:33.071Z,10.17
2023-01-07T15:27:06.680Z,10.11
2023-01-07T15:29:45.541Z,10.01
2023-01-07T15:32:25.384Z,9.95
2023-01-07T15:34:53.174Z,9.85
2023-01-07T15:37:21.495Z,9.77
2023-01-07T15:39:59.738Z,9.75
2023-01-07T15:42:29.026Z,9.65
2023-01-07T15:44:58.456Z,9.64
2023-01-07T15:47:36.828Z,9.54
2023-01-07T15:50:25.505Z,9.47
2023-01-07T15:52:55.097Z,9.40
2023-01-07T15:55:26.432Z,9.39
2023-01-07T15:58:01.790Z,9.34
2023-01-07T16:00:29.827Z,9.35
2023-01-07T16:02:58.703Z,9.30
2023-01-07T16:05:27.073Z,9.26
2023-01-07T16:07:56.725Z,9.19
2023-01-07T16:10:27.975Z,9.22
2023-01-07T16:12:57.049Z,9.18
2023-01-07T16:15:27.812Z,9.27
2023-01-07T16:17:57.695Z,9.26
2023-01-07T16:20:29.690Z,9.24
2023-01-07T16:23:18.659Z,9.23
2023-01-07T16:25:52.457Z,9.21
2023-01-07T16:28:23.153Z,9.23
2023-01-07T16:30:52.797Z,9.33
2023-01-07T16:33:23.833Z,9.22
2023-01-07T16:35:54.033Z,9.12
2023-01-07T16:38:22.540Z,9.10
2023-01-07T16:40:52.173Z,9.11
2023-01-07T16:43:44.560Z,9.06
2023-01-07T16:46:30.595Z,8.93
2023-01-07T16:49:21.573Z,8.91
2023-01-07T16:51:51.020Z,8.91
2023-01-07T16:54:41.403Z,8.89
2023-01-07T16:57:28.887Z,8.91
2023-01-07T16:59:58.364Z,8.97
2023-01-07T17:02:32.232Z,8.96
2023-01-07T17:05:16.367Z,9.03
2023-01-07T17:07:47.850Z,9.08
2023-01-07T17:10:21.792Z,8.93
2023-01-07T17:12:59.528Z,8.88
2023-01-07T17:15:35.315Z,8.78
2023-01-07T17:18:26.588Z,8.75
2023-01-07T17:20:55.882Z,8.62
2023-01-07T17:23:34.072Z,8.61
2023-01-07T17:26:04.110Z,8.55
2023-01-07T17:28:36.073Z,8.62
2023-01-07T17:31:04.787Z,8.67
2023-01-07T17:33:33.110Z,8.75
2023-01-07T17:36:01.087Z,8.79
2023-01-07T17:38:29.745Z,8.90
2023-01-07T17:40:57.690Z,8.86
2023-01-07T17:43:35.852Z,9.09
2023-01-07T17:46:07.038Z,8.87
2023-01-07T17:48:36.636Z,8.77
2023-01-07T17:51:05.303Z,8.77
2023-01-07T17:53:42.252Z,8.68
2023-01-07T17:56:10.083Z,8.53
2023-01-07T17:58:41.156Z,8.45
2023-01-07T18:01:12.760Z,8.38
2023-01-07T18:03:41.147Z,8.46
2023-01-07T18:06:17.335Z,8.33
2023-01-07T18:08:45.747Z,8.00
2023-01-07T18:11:33.393Z,7.81
2023-01-07T18:14:01.394Z,7.82
2023-01-07T18:16:30.532Z,7.82
2023-01-07T18:18:58.250Z,7.80
2023-01-07T18:21:26.311Z,7.78
2023-01-07T18:23:53.988Z,7.75
2023-01-07T18:26:21.783Z,7.71
2023-01-07T18:28:49.948Z,7.60
2023-01-07T18:31:17.674Z,7.53
2023-01-07T18:33:46.670Z,7.58
2023-01-07T18:36:16.668Z,7.67
2023-01-07T18:38:44.985Z,7.70
2023-01-07T18:41:13.113Z,7.74
2023-01-07T18:43:41.016Z,7.73
2023-01-07T18:46:10.526Z,7.74
2023-01-07T18:48:38.329Z,7.65
2023-01-07T18:51:11.781Z,7.62
2023-01-07T18:53:39.780Z,7.62
2023-01-07T18:56:11.623Z,7.69
2023-01-07T18:58:39.711Z,7.77
2023-01-07T19:01:09.246Z,7.76
2023-01-07T19:03:38.262Z,7.67
2023-01-07T19:06:08.048Z,7.64
2023-01-07T19:08:37.523Z,7.66
2023-01-07T19:11:07.855Z,7.72
2023-01-07T19:13:35.816Z,7.69
2023-01-07T19:16:07.100Z,7.71
2023-01-07T19:18:34.896Z,7.77
2023-01-07T19:21:03.542Z,7.94
2023-01-07T19:23:31.412Z,8.07
2023-01-07T19:26:02.090Z,8.02
2023-01-07T19:28:31.655Z,8.12
2023-01-07T19:31:00.104Z,8.18
2023-01-07T19:33:27.772Z,8.23
2023-01-07T19:36:02.730Z,8.34
2023-01-07T19:38:31.019Z,8.65
2023-01-07T19:41:00.145Z,8.75
2023-01-07T19:43:27.826Z,8.91
2023-01-07T19:45:57.241Z,8.84
2023-01-07T19:48:25.458Z,8.90
2023-01-07T19:50:57.996Z,9.04
2023-01-07T19:53:26.589Z,8.92
2023-01-07T19:55:55.045Z,8.95
2023-01-07T19:58:24.153Z,9.02
2023-01-07T20:00:51.975Z,8.87
2023-01-07T20:03:19.819Z,8.73
2023-01-07T20:05:47.578Z,8.68
2023-01-07T20:08:15.281Z,8.71
2023-01-07T20:10:43.018Z,8.61
2023-01-07T20:13:10.681Z,8.74
2023-01-07T20:15:39.728Z,8.63
2023-01-07T20:18:07.411Z,8.65
2023-01-07T20:20:34.994Z,8.44
2023-01-07T20:23:02.633Z,8.57
2023-01-07T20:25:30.325Z,8.54
2023-01-07T20:27:58.059Z,8.55
2023-01-07T20:30:26.064Z,8.49
2023-01-07T20:32:55.141Z,8.46
2023-01-07T20:35:24.439Z,8.30
2023-01-07T20:37:52.159Z,8.28
2023-01-07T20:40:19.890Z,8.26
2023-01-07T20:42:47.575Z,8.22
2023-01-07T20:45:15.822Z,8.28
2023-01-07T20:47:43.790Z,8.32
2023-01-07T20:50:15.191Z,8.37
2023-01-07T20:52:42.902Z,8.35
2023-01-07T20:55:10.920Z,8.32
2023-01-07T20:57:38.735Z,8.29
2023-01-07T21:00:07.549Z,8.37
2023-01-07T21:02:35.484Z,8.30
2023-01-07T21:05:03.363Z,8.27
2023-01-07T21:07:32.553Z,8.21
2023-01-07T21:10:00.238Z,8.19
2023-01-07T21:12:27.924Z,8.12
2023-01-07T21:14:55.631Z,8.11
2023-01-07T21:17:23.871Z,8.09
2023-01-07T21:19:51.476Z,7.95
2023-01-07T21:22:19.111Z,7.91
2023-01-07T21:24:48.168Z,8.02
2023-01-07T21:27:15.874Z,8.11
2023-01-07T21:29:43.623Z,8.12
2023-01-07T21:32:11.351Z,8.07
2023-01-07T21:34:38.974Z,8.00
2023-01-07T21:37:06.823Z,7.95
2023-01-07T21:39:34.549Z,7.91
2023-01-07T21:42:03.624Z,7.93
2023-01-07T21:44:31.355Z,7.89
2023-01-07T21:46:58.988Z,7.89
2023-01-07T21:49:26.866Z,7.93
2023-01-07T21:51:54.578Z,7.96
2023-01-07T21:54:22.480Z,7.96
2023-01-07T21:56:50.260Z,7.94
2023-01-07T21:59:20.621Z,7.83
2023-01-07T22:01:49.040Z,7.77
2023-01-07T22:04:16.893Z,7.78
2023-01-07T22:06:44.967Z,7.79
2023-01-07T22:09:16.122Z,7.79
2023-01-07T22:11:44.531Z,7.90
2023-01-07T22:14:14.100Z,7.93
2023-01-07T22:16:43.388Z,7.88
2023-01-07T22:19:12.429Z,7.97
2023-01-07T22:21:40.357Z,8.07
2023-01-07T22:24:08.602Z,8.25
2023-01-07T22:26:37.071Z,8.23
2023-01-07T22:29:08.782Z,8.33
2023-01-07T22:31:37.790Z,8.37
2023-01-07T22:34:08.282Z,8.48
2023-01-07T22:36:41.743Z,8.40
2023-01-07T22:39:12.226Z,8.44
2023-01-07T22:41:40.875Z,8.42
2023-01-07T22:44:12.255Z,8.45
2023-01-07T22:46:43.623Z,8.51
2023-01-07T22:49:13.527Z,8.55
2023-01-07T22:51:44.474Z,8.61
2023-01-07T22:54:13.513Z,8.55
2023-01-07T22:56:42.207Z,8.63
2023-01-07T22:59:09.955Z,8.68
2023-01-07T23:01:38.199Z,8.81
2023-01-07T23:04:06.173Z,8.91
2023-01-07T23:06:35.274Z,8.97
2023-01-07T23:09:03.226Z,8.83
2023-01-07T23:11:51.603Z,8.79
2023-01-07T23:14:21.465Z,8.73
2023-01-07T23:16:49.876Z,8.90
2023-01-07T23:19:18.511Z,8.96
2023-01-07T23:21:48.854Z,9.02
2023-01-07T23:24:16.614Z,8.99
2023-01-07T23:26:44.881Z,9.11
2023-01-07T23:29:12.619Z,9.02
2023-01-07T23:31:40.375Z,9.05
2023-01-07T23:34:09.091Z,9.05
2023-01-07T23:36:37.238Z,9.20
2023-01-07T23:39:06.912Z,9.16
2023-01-07T23:41:35.054Z,9.00
2023-01-07T23:44:02.867Z,8.91
2023-01-07T23:46:30.667Z,8.89
2023-01-07T23:48:58.452Z,8.92
2023-01-07T23:51:26.441Z,9.00
2023-01-07T23:53:54.178Z,8.94
2023-01-07T23:56:23.661Z,8.96
2023-01-07T23:58:51.486Z,8.98
